Time;durP1;ratioP1;P1;durP2;ratioP2;P2;SDS_P1;SDS_P2;PMS_P1;PMS_P2;Temp;Humidity;BMP_temperature;BMP_pressure;BME280_temperature;BME280_humidity;BME280_pressure;Samples;Min_cycle;Max_cycle;Signal;HPM_P1;HPM_P2
2022/04/07 00:00:21;;;;;;;13.00;4.15;;;9.30;99.90;;;;;;5012984;28;206442;-77
2022/04/07 00:02:47;;;;;;;13.50;3.63;;;9.30;99.90;;;;;;4974861;28;20052;-75
2022/04/07 00:05:14;;;;;;;13.25;3.55;;;9.30;99.90;;;;;;5022714;28;98931;-76
2022/04/07 00:07:40;;;;;;;15.05;3.70;;;9.30;99.90;;;;;;4993329;28;20352;-77
2022/04/07 00:10:06;;;;;;;14.75;3.38;;;9.20;99.90;;;;;;5019298;28;56723;-76
2022/04/07 00:12:33;;;;;;;10.93;3.13;;;9.10;99.90;;;;;;4977532;28;20052;-76
2022/04/07 00:15:00;;;;;;;12.07;3.08;;;9.10;99.90;;;;;;5026436;28;136656;-76
2022/04/07 00:17:29;;;;;;;12.20;3.17;;;9.00;99.90;;;;;;4983208;28;20053;-76
2022/04/07 00:19:56;;;;;;;11.88;3.03;;;9.00;99.90;;;;;;5027009;28;102615;-76
2022/04/07 00:22:22;;;;;;;11.23;3.13;;;8.90;99.90;;;;;;4982822;28;20041;-76
2022/04/07 00:24:48;;;;;;;12.00;2.47;;;8.90;99.90;;;;;;5020382;28;98410;-76
2022/04/07 00:27:14;;;;;;;12.07;3.10;;;8.90;99.90;;;;;;4979413;28;20473;-76
2022/04/07 00:29:40;;;;;;;13.30;3.28;;;8.90;99.90;;;;;;5027623;28;89959;-75
2022/04/07 00:32:07;;;;;;;15.07;3.88;;;8.90;99.90;;;;;;5010364;28;20045;-75
2022/04/07 00:34:33;;;;;;;13.35;4.07;;;8.80;99.90;;;;;;5015868;28;235061;-75
2022/04/07 00:36:59;;;;;;;11.20;3.65;;;8.90;99.90;;;;;;4994169;28;20052;-75
2022/04/07 00:39:25;;;;;;;14.98;4.53;;;8.90;99.90;;;;;;5018170;28;262730;-76
2022/04/07 00:41:51;;;;;;;15.18;4.80;;;8.80;99.90;;;;;;4987975;28;20045;-76
2022/04/07 00:44:21;;;;;;;13.68;4.50;;;8.90;99.90;;;;;;5013819;28;225179;-75
2022/04/07 00:46:48;;;;;;;13.20;4.22;;;8.80;99.90;;;;;;4990166;28;20560;-75
2022/04/07 00:49:15;;;;;;;15.73;4.60;;;8.80;99.90;;;;;;5021375;28;44013;-75
2022/04/07 00:51:43;;;;;;;15.95;4.05;;;8.80;99.90;;;;;;4992841;28;20482;-76
2022/04/07 00:54:10;;;;;;;12.30;3.90;;;8.80;99.90;;;;;;5009596;28;261603;-76
2022/04/07 00:56:37;;;;;;;14.32;3.40;;;8.80;99.90;;;;;;4978457;28;20045;-76
2022/04/07 00:59:05;;;;;;;12.68;3.45;;;8.80;99.90;;;;;;5014866;28;264202;-76
2022/04/07 01:01:32;;;;;;;9.90;3.08;;;8.80;99.90;;;;;;4988328;28;20501;-75
2022/04/07 01:03:58;;;;;;;10.37;2.83;;;8.80;99.90;;;;;;4995986;28;275432;-75
2022/04/07 01:06:25;;;;;;;14.27;2.63;;;8.80;99.90;;;;;;4977126;28;20038;-75
2022/04/07 01:08:51;;;;;;;15.50;2.97;;;8.80;99.90;;;;;;4991224;28;244785;-75
2022/04/07 01:11:17;;;;;;;12.10;2.75;;;8.80;99.90;;;;;;4984110;28;20060;-75
2022/04/07 01:13:49;;;;;;;12.38;2.85;;;8.80;99.90;;;;;;5021259;28;20053;-76
2022/04/07 01:16:17;;;;;;;12.48;3.35;;;8.80;99.90;;;;;;4978720;28;20502;-77
2022/04/07 01:18:47;;;;;;;12.00;2.83;;;8.80;99.90;;;;;;5011699;28;20510;-76
2022/04/07 01:21:16;;;;;;;11.98;3.58;;;8.80;99.90;;;;;;4989320;28;94673;-75
2022/04/07 01:24:10;;;;;;;11.95;3.45;;;8.90;99.90;;;;;;5021612;28;20069;-76
2022/04/07 01:26:37;;;;;;;11.77;3.28;;;8.90;99.90;;;;;;4977373;28;20036;-77
2022/04/07 01:29:05;;;;;;;13.07;3.63;;;8.90;99.90;;;;;;4999090;28;261741;-76
2022/04/07 01:31:32;;;;;;;11.00;3.92;;;8.90;99.90;;;;;;4989854;28;20048;-75
2022/04/07 01:34:00;;;;;;;12.48;4.72;;;8.80;99.90;;;;;;4999367;28;268536;-75
2022/04/07 01:36:41;;;;;;;17.00;5.72;;;8.80;99.90;;;;;;4992953;28;20075;-76
2022/04/07 01:39:09;;;;;;;18.30;5.35;;;8.80;99.90;;;;;;5020594;28;278081;-76
2022/04/07 01:41:38;;;;;;;17.38;5.78;;;8.80;99.90;;;;;;5009055;28;20513;-76
2022/04/07 01:44:05;;;;;;;16.60;5.38;;;8.80;99.90;;;;;;5013239;28;270301;-76
2022/04/07 01:46:33;;;;;;;16.50;6.38;;;8.90;99.90;;;;;;4995478;28;20507;-75
2022/04/07 01:49:01;;;;;;;20.33;6.47;;;8.80;99.90;;;;;;5015273;28;252268;-75
2022/04/07 01:51:28;;;;;;;15.95;5.70;;;8.90;99.90;;;;;;4992201;28;20053;-76
2022/04/07 01:53:56;;;;;;;16.33;5.67;;;8.90;99.90;;;;;;5014520;28;253528;-76
2022/04/07 01:56:23;;;;;;;20.42;5.75;;;8.80;99.90;;;;;;4990727;28;20037;-75
2022/04/07 01:58:50;;;;;;;17.65;4.70;;;8.90;99.90;;;;;;5004416;28;252498;-74
2022/04/07 02:01:16;;;;;;;14.00;4.22;;;9.00;99.90;;;;;;4996773;28;20099;-76
2022/04/07 02:03:45;;;;;;;16.65;4.45;;;9.00;99.90;;;;;;5020214;28;20433;-75
2022/04/07 02:06:19;;;;;;;19.05;4.80;;;9.00;99.90;;;;;;4976609;28;178495;-77
2022/04/07 02:08:46;;;;;;;18.45;5.15;;;9.00;99.90;;;;;;5051053;28;20049;-77
2022/04/07 02:11:12;;;;;;;21.40;5.22;;;9.00;99.90;;;;;;5014882;28;59798;-78
2022/04/07 02:13:40;;;;;;;18.25;4.97;;;8.90;99.90;;;;;;5068144;28;20037;-78
2022/04/07 02:16:11;;;;;;;16.20;4.50;;;8.90;99.90;;;;;;5015724;28;261084;-79
2022/04/07 02:18:38;;;;;;;18.97;4.77;;;8.80;99.90;;;;;;5058313;28;20053;-78
2022/04/07 02:21:04;;;;;;;21.35;5.25;;;8.80;99.90;;;;;;5003411;28;183081;-78
2022/04/07 02:23:34;;;;;;;17.58;4.88;;;8.80;99.90;;;;;;5080980;28;20052;-78
2022/04/07 02:26:00;;;;;;;15.07;4.28;;;8.80;99.90;;;;;;5016514;28;257802;-79
2022/04/07 02:28:26;;;;;;;16.55;4.65;;;8.90;99.90;;;;;;5069888;28;20509;-77
2022/04/07 02:30:53;;;;;;;17.00;4.50;;;8.80;99.90;;;;;;5014251;28;274197;-79
2022/04/07 02:33:19;;;;;;;15.35;4.55;;;8.80;99.90;;;;;;5068318;28;20052;-78
2022/04/07 02:35:45;;;;;;;19.45;4.68;;;8.80;99.90;;;;;;5011873;28;255739;-77
2022/04/07 02:38:11;;;;;;;19.23;4.57;;;8.90;99.90;;;;;;5049431;28;20067;-79
2022/04/07 02:40:37;;;;;;;20.48;5.00;;;8.90;99.90;;;;;;5018534;28;258883;-78
2022/04/07 02:43:04;;;;;;;19.23;5.22;;;8.90;99.90;;;;;;5055066;28;20047;-78
2022/04/07 02:45:30;;;;;;;15.95;4.57;;;8.90;99.90;;;;;;5034984;28;254331;-78
2022/04/07 02:47:56;;;;;;;18.98;5.38;;;8.90;99.90;;;;;;5052642;28;20058;-78
2022/04/07 02:50:22;;;;;;;21.17;5.28;;;8.90;99.90;;;;;;5052857;28;256601;-77
2022/04/07 02:52:48;;;;;;;18.20;4.90;;;8.90;99.90;;;;;;5021705;28;20032;-77
2022/04/07 02:55:14;;;;;;;19.98;5.00;;;8.90;99.90;;;;;;5035215;28;92508;-77
2022/04/07 02:57:41;;;;;;;16.65;4.72;;;8.90;99.90;;;;;;5029030;28;20043;-78
2022/04/07 03:00:08;;;;;;;16.35;4.20;;;8.90;99.90;;;;;;5049340;28;255642;-79
2022/04/07 03:02:34;;;;;;;18.15;4.38;;;8.90;99.90;;;;;;5025072;28;20053;-78
2022/04/07 03:05:00;;;;;;;22.52;4.57;;;8.90;99.90;;;;;;5033022;28;258121;-77
2022/04/07 03:07:26;;;;;;;17.33;4.22;;;9.00;99.90;;;;;;5028083;28;20040;-79
2022/04/07 03:09:52;;;;;;;25.88;5.70;;;8.80;99.90;;;;;;5048314;28;271115;-78
2022/04/07 03:12:19;;;;;;;16.02;4.22;;;8.90;99.90;;;;;;5028807;28;20051;-77
2022/04/07 03:14:45;;;;;;;18.70;4.68;;;8.80;99.90;;;;;;5043047;28;260032;-77
2022/04/07 03:17:11;;;;;;;21.13;4.40;;;8.80;99.90;;;;;;5009584;28;20050;-77
2022/04/07 03:19:37;;;;;;;18.52;4.47;;;8.80;99.90;;;;;;5046253;28;260089;-78
2022/04/07 03:22:04;;;;;;;25.73;5.05;;;8.80;99.90;;;;;;5005013;28;20120;-79
2022/04/07 03:24:30;;;;;;;24.80;5.10;;;8.80;99.90;;;;;;5044590;28;265456;-79
2022/04/07 03:26:57;;;;;;;21.90;4.93;;;8.80;99.90;;;;;;5022463;28;20047;-79
2022/04/07 03:29:23;;;;;;;20.08;4.18;;;8.70;99.90;;;;;;5046535;28;265151;-79
2022/04/07 03:31:49;;;;;;;18.45;3.85;;;8.70;99.90;;;;;;5028188;28;20049;-79
2022/04/07 03:34:15;;;;;;;14.63;3.90;;;8.70;99.90;;;;;;5041831;28;273921;-79
2022/04/07 03:36:41;;;;;;;16.48;3.97;;;8.70;99.90;;;;;;5007699;28;20041;-79
2022/04/07 03:39:09;;;;;;;14.55;4.10;;;8.70;99.90;;;;;;5046635;28;251985;-79
2022/04/07 03:41:35;;;;;;;16.75;3.55;;;8.60;99.90;;;;;;5029653;28;20059;-79
2022/04/07 03:44:03;;;;;;;16.60;3.88;;;8.60;99.90;;;;;;5043635;28;251564;-79
2022/04/07 03:46:29;;;;;;;13.43;3.30;;;8.60;99.90;;;;;;5027920;28;20045;-79
2022/04/07 03:48:56;;;;;;;15.10;3.60;;;8.70;99.90;;;;;;5036718;28;266327;-78
2022/04/07 03:51:22;;;;;;;17.77;3.38;;;8.70;99.90;;;;;;5033608;28;20047;-78
2022/04/07 03:53:48;;;;;;;15.57;3.15;;;8.70;99.90;;;;;;5059508;28;20029;-78
2022/04/07 03:56:14;;;;;;;18.30;3.97;;;8.70;99.90;;;;;;5011710;28;20053;-78
2022/04/07 03:58:40;;;;;;;14.95;3.28;;;8.70;99.90;;;;;;5057783;28;20038;-79
2022/04/07 04:01:07;;;;;;;16.80;3.55;;;8.70;99.90;;;;;;5026621;28;229416;-78
2022/04/07 04:03:33;;;;;;;16.15;3.75;;;8.80;99.90;;;;;;5060147;28;20041;-77
2022/04/07 04:06:00;;;;;;;22.17;4.03;;;8.80;99.90;;;;;;4993864;28;263881;-78
2022/04/07 04:08:26;;;;;;;19.25;3.88;;;8.80;99.90;;;;;;5040509;28;20041;-77
2022/04/07 04:10:52;;;;;;;20.77;4.50;;;8.80;99.90;;;;;;5014963;28;264064;-77
2022/04/07 04:13:18;;;;;;;20.33;4.40;;;8.80;99.90;;;;;;5049072;28;20048;-75
2022/04/07 04:15:45;;;;;;;18.88;4.50;;;8.80;99.90;;;;;;5016966;28;253335;-75
2022/04/07 04:18:17;;;;;;;22.70;4.97;;;8.80;99.90;;;;;;5067973;28;20057;-76
2022/04/07 04:20:43;;;;;;;19.92;4.30;;;8.80;99.90;;;;;;5029733;28;20513;-76
2022/04/07 04:23:09;;;;;;;23.63;4.72;;;8.80;99.90;;;;;;5045253;28;20071;-76
2022/04/07 04:25:36;;;;;;;25.58;5.22;;;8.70;99.90;;;;;;5020627;28;159596;-77
2022/04/07 04:28:03;;;;;;;19.15;4.53;;;8.70;99.90;;;;;;5078127;28;20066;-78
2022/04/07 04:30:30;;;;;;;20.35;4.70;;;8.70;99.90;;;;;;4994905;28;93850;-76
2022/04/07 04:32:58;;;;;;;26.92;4.95;;;8.70;99.90;;;;;;5037192;28;20051;-79
2022/04/07 04:35:24;;;;;;;26.42;5.50;;;8.60;99.90;;;;;;5049964;28;249607;-77
2022/04/07 04:37:50;;;;;;;26.88;5.25;;;8.60;99.90;;;;;;5005146;28;20242;-78
2022/04/07 04:40:18;;;;;;;30.67;5.32;;;8.60;99.90;;;;;;5046219;28;127893;-78
2022/04/07 04:42:44;;;;;;;30.55;5.38;;;8.60;99.90;;;;;;5034669;28;20055;-75
2022/04/07 04:45:10;;;;;;;25.27;4.70;;;8.70;99.90;;;;;;5044955;28;258174;-76
2022/04/07 04:47:36;;;;;;;26.50;5.82;;;8.60;99.90;;;;;;5030289;28;20104;-78
2022/04/07 04:50:05;;;;;;;22.80;5.07;;;8.60;99.90;;;;;;5042683;28;256160;-76
2022/04/07 04:52:41;;;;;;;25.98;4.65;;;8.60;99.90;;;;;;5019263;28;20096;-76
2022/04/07 04:55:08;;;;;;;23.05;4.00;;;8.60;99.90;;;;;;5044237;28;256838;-77
2022/04/07 04:57:34;;;;;;;18.00;2.90;;;8.50;99.90;;;;;;5036473;28;20049;-78
2022/04/07 05:00:00;;;;;;;17.33;4.20;;;8.40;99.90;;;;;;5043929;28;262577;-77
2022/04/07 05:02:26;;;;;;;35.03;6.05;;;8.30;99.90;;;;;;5034576;28;20048;-76
2022/04/07 05:04:52;;;;;;;22.33;5.72;;;8.30;99.90;;;;;;5030677;28;261273;-76
2022/04/07 05:07:18;;;;;;;23.90;5.18;;;8.30;99.90;;;;;;5024982;28;20041;-75
2022/04/07 05:09:45;;;;;;;26.63;6.30;;;8.30;99.90;;;;;;5041914;28;259277;-77
2022/04/07 05:12:11;;;;;;;34.60;6.05;;;8.30;99.90;;;;;;5017619;28;20100;-75
2022/04/07 05:14:37;;;;;;;30.27;5.95;;;8.30;99.90;;;;;;5044429;28;263301;-75
2022/04/07 05:17:03;;;;;;;18.73;3.35;;;8.30;99.90;;;;;;5023912;28;20131;-75
2022/04/07 05:19:30;;;;;;;14.27;2.83;;;8.20;99.90;;;;;;5032616;28;252664;-74
2022/04/07 05:21:56;;;;;;;19.48;3.15;;;8.00;99.90;;;;;;5017114;28;20048;-74
2022/04/07 05:24:22;;;;;;;15.07;2.80;;;7.90;99.90;;;;;;5023093;28;20048;-73
2022/04/07 05:26:48;;;;;;;18.92;3.35;;;7.80;99.90;;;;;;5012675;28;20752;-74
2022/04/07 05:29:14;;;;;;;18.75;3.53;;;7.80;99.90;;;;;;5029341;28;263938;-74
2022/04/07 05:31:40;;;;;;;15.73;2.92;;;7.80;99.90;;;;;;5013151;28;20053;-75
2022/04/07 05:34:07;;;;;;;17.47;3.60;;;7.80;99.90;;;;;;5027370;28;246283;-75
2022/04/07 05:36:33;;;;;;;21.42;3.50;;;7.80;99.90;;;;;;5022564;28;20048;-75
2022/04/07 05:38:59;;;;;;;11.05;1.70;;;7.70;99.90;;;;;;5021605;28;274759;-74
2022/04/07 05:41:25;;;;;;;8.45;1.23;;;7.00;99.90;;;;;;5003907;28;20053;-77
2022/04/07 05:43:51;;;;;;;11.48;1.30;;;6.00;99.90;;;;;;5011145;28;270548;-75
2022/04/07 05:46:17;;;;;;;12.20;1.50;;;5.20;99.90;;;;;;4996974;28;20041;-75
2022/04/07 05:48:43;;;;;;;9.30;1.67;;;4.90;99.90;;;;;;5036257;28;20384;-74
2022/04/07 05:51:09;;;;;;;11.32;1.50;;;4.80;99.90;;;;;;4970379;28;204135;-75
2022/04/07 05:53:36;;;;;;;10.73;1.70;;;4.80;99.90;;;;;;5031775;28;20060;-74
2022/04/07 05:56:02;;;;;;;11.77;1.67;;;4.80;99.90;;;;;;4984082;28;211460;-76
2022/04/07 05:58:29;;;;;;;9.80;1.58;;;4.80;99.90;;;;;;5032940;28;20048;-76
2022/04/07 06:00:55;;;;;;;11.43;1.60;;;4.80;99.90;;;;;;4997327;28;79163;-76
2022/04/07 06:03:21;;;;;;;13.43;1.75;;;4.80;99.90;;;;;;5015562;28;20057;-77
2022/04/07 06:05:52;;;;;;;11.48;1.50;;;4.80;99.90;;;;;;4970635;28;266371;-77
2022/04/07 06:08:19;;;;;;;12.18;1.50;;;4.90;99.90;;;;;;5028931;28;20057;-77
2022/04/07 06:10:46;;;;;;;13.55;1.65;;;4.90;99.90;;;;;;4984608;28;170144;-78
2022/04/07 06:13:14;;;;;;;10.65;1.40;;;4.90;99.90;;;;;;5027952;28;20041;-77
2022/04/07 06:15:41;;;;;;;10.10;1.92;;;5.00;99.90;;;;;;4982829;28;200383;-77
2022/04/07 06:18:07;;;;;;;13.45;1.98;;;5.00;99.90;;;;;;5055384;28;20382;-78
2022/04/07 06:20:33;;;;;;;12.75;1.77;;;5.00;99.90;;;;;;4985887;28;199083;-75
2022/04/07 06:23:02;;;;;;;11.73;1.73;;;5.10;99.90;;;;;;5005470;28;20044;-75
2022/04/07 06:25:28;;;;;;;9.27;1.70;;;5.10;99.90;;;;;;4998334;28;39725;-76
2022/04/07 06:27:54;;;;;;;11.48;1.73;;;5.10;99.90;;;;;;5000112;28;20062;-76
2022/04/07 06:30:21;;;;;;;14.32;1.60;;;5.10;99.90;;;;;;5018370;28;254226;-73
2022/04/07 06:32:48;;;;;;;9.60;1.33;;;5.20;99.90;;;;;;4993814;28;20044;-76
2022/04/07 06:35:15;;;;;;;13.93;1.42;;;5.10;99.90;;;;;;5017779;28;172420;-76
2022/04/07 06:37:54;;;;;;;5.53;1.05;;;5.10;99.90;;;;;;4980117;28;20046;-76
2022/04/07 06:40:30;;;;;;;10.18;1.38;;;5.20;99.90;;;;;;5018743;28;243356;-75
2022/04/07 06:42:58;;;;;;;10.55;1.50;;;5.20;99.90;;;;;;4969534;28;20049;-77
2022/04/07 06:45:28;;;;;;;5.00;0.90;;;5.20;99.90;;;;;;4996119;28;76293;-74
2022/04/07 06:47:55;;;;;;;10.90;1.73;;;5.20;99.90;;;;;;4988992;28;20048;-75
2022/04/07 06:50:23;;;;;;;5.80;0.98;;;5.30;99.90;;;;;;5007412;28;34646;-75
2022/04/07 06:52:49;;;;;;;6.10;1.17;;;5.30;99.90;;;;;;5000936;28;20548;-75
2022/04/07 06:55:16;;;;;;;9.50;1.08;;;5.30;99.90;;;;;;5017745;28;81748;-77
2022/04/07 06:57:52;;;;;;;6.35;1.10;;;5.40;99.90;;;;;;5002526;28;20490;-76
2022/04/07 07:00:23;;;;;;;6.30;0.98;;;5.40;99.90;;;;;;5018536;28;222333;-75
2022/04/07 07:02:54;;;;;;;6.95;0.90;;;5.40;99.90;;;;;;4976388;28;20570;-76
2022/04/07 07:05:22;;;;;;;8.70;1.02;;;5.50;99.90;;;;;;5010028;28;150982;-76
2022/04/07 07:07:48;;;;;;;5.68;0.75;;;5.50;99.90;;;;;;5007602;28;20045;-76
2022/04/07 07:10:20;;;;;;;5.95;0.98;;;5.50;99.90;;;;;;5014837;28;183758;-76
2022/04/07 07:12:51;;;;;;;10.57;1.00;;;5.50;99.90;;;;;;5011135;28;20049;-76
2022/04/07 07:15:17;;;;;;;8.02;1.10;;;5.50;99.90;;;;;;5007301;28;130163;-76
2022/04/07 07:17:43;;;;;;;6.65;0.98;;;5.50;99.90;;;;;;4981477;28;20041;-76
2022/04/07 07:20:11;;;;;;;5.28;0.80;;;5.60;99.90;;;;;;5015254;28;23641;-75
2022/04/07 07:22:42;;;;;;;5.50;0.85;;;5.60;99.90;;;;;;4982639;28;20056;-75
2022/04/07 07:25:09;;;;;;;7.63;0.95;;;5.60;99.90;;;;;;5026527;28;157738;-76
2022/04/07 07:27:46;;;;;;;4.45;0.70;;;5.60;99.90;;;;;;4985218;28;20056;-75
2022/04/07 07:30:17;;;;;;;6.75;1.08;;;5.70;99.90;;;;;;5021310;28;41218;-75
2022/04/07 07:32:47;;;;;;;6.03;0.90;;;5.70;99.90;;;;;;4995787;28;20049;-75
2022/04/07 07:35:14;;;;;;;6.10;0.95;;;5.70;99.90;;;;;;5009615;28;194922;-75
2022/04/07 07:37:48;;;;;;;7.18;1.00;;;5.70;99.90;;;;;;5010079;28;20045;-76
2022/04/07 07:40:14;;;;;;;5.90;1.05;;;5.80;99.90;;;;;;5022093;28;54471;-75
2022/04/07 07:42:40;;;;;;;5.80;1.00;;;5.90;99.90;;;;;;4997521;28;20055;-75
2022/04/07 07:45:07;;;;;;;7.25;1.15;;;5.90;99.90;;;;;;5020991;28;32650;-75
2022/04/07 07:47:34;;;;;;;8.68;1.10;;;5.90;99.90;;;;;;4977683;28;20421;-75
2022/04/07 07:50:01;;;;;;;6.25;0.95;;;5.90;99.90;;;;;;5021926;28;20048;-75
2022/04/07 07:52:27;;;;;;;5.90;1.00;;;5.90;99.90;;;;;;4970998;28;20038;-75
2022/04/07 07:54:53;;;;;;;5.78;0.82;;;6.00;99.90;;;;;;5029597;28;104063;-76
2022/04/07 07:57:20;;;;;;;8.18;0.93;;;6.00;99.90;;;;;;4992483;28;20047;-75
2022/04/07 07:59:46;;;;;;;8.30;1.23;;;6.00;99.90;;;;;;5026598;28;108641;-75
2022/04/07 08:02:12;;;;;;;7.70;1.10;;;6.10;99.90;;;;;;4955812;28;20038;-75
2022/04/07 08:04:38;;;;;;;8.30;1.02;;;6.10;99.90;;;;;;5003450;28;216895;-75
2022/04/07 08:07:04;;;;;;;7.68;1.00;;;6.20;99.90;;;;;;5012725;28;20060;-75
2022/04/07 08:09:30;;;;;;;6.53;1.02;;;6.20;99.90;;;;;;5020451;28;131067;-75
2022/04/07 08:11:57;;;;;;;8.07;1.30;;;6.30;99.90;;;;;;5003798;28;20397;-75
2022/04/07 08:14:23;;;;;;;8.75;1.27;;;6.30;99.90;;;;;;5027118;28;265406;-75
2022/04/07 08:16:49;;;;;;;7.00;1.10;;;6.30;99.90;;;;;;5004081;28;20505;-74
2022/04/07 08:19:15;;;;;;;8.27;1.30;;;6.30;99.90;;;;;;5025993;28;268997;-75
2022/04/07 08:21:41;;;;;;;9.15;1.17;;;6.30;99.90;;;;;;4998346;28;20029;-76
2022/04/07 08:24:08;;;;;;;7.93;1.30;;;6.30;99.90;;;;;;5018798;28;263419;-75
2022/04/07 08:26:34;;;;;;;10.52;1.50;;;6.30;99.90;;;;;;4984278;28;20568;-76
2022/04/07 08:29:00;;;;;;;9.98;1.50;;;6.40;99.90;;;;;;5016485;28;269154;-75
2022/04/07 08:31:26;;;;;;;10.65;1.50;;;6.80;99.90;;;;;;5019329;28;20044;-74
2022/04/07 08:33:52;;;;;;;8.00;1.23;;;7.30;99.90;;;;;;5006703;28;243388;-75
2022/04/07 08:36:19;;;;;;;8.75;1.20;;;7.60;99.90;;;;;;4990497;28;20414;-75
2022/04/07 08:38:45;;;;;;;7.15;1.27;;;7.80;99.90;;;;;;5028059;28;20426;-75
2022/04/07 08:41:12;;;;;;;7.43;1.27;;;7.70;99.90;;;;;;4980288;28;102131;-75
2022/04/07 08:43:42;;;;;;;12.18;1.38;;;7.70;99.90;;;;;;5036901;28;20064;-76
2022/04/07 08:46:11;;;;;;;10.65;1.30;;;8.10;99.90;;;;;;5001594;28;268047;-76
2022/04/07 08:48:42;;;;;;;11.00;1.65;;;8.60;99.90;;;;;;5020231;28;20057;-76
2022/04/07 08:51:10;;;;;;;9.52;1.25;;;8.90;99.90;;;;;;4978760;28;49341;-76
2022/04/07 08:53:38;;;;;;;8.48;1.20;;;9.20;99.90;;;;;;5020047;28;20064;-76
2022/04/07 08:56:05;;;;;;;9.32;1.00;;;9.40;99.90;;;;;;4985960;28;53152;-76
2022/04/07 08:58:32;;;;;;;7.00;1.05;;;9.00;99.90;;;;;;5020812;28;20064;-75
2022/04/07 09:01:02;;;;;;;8.82;1.10;;;9.30;99.90;;;;;;5003160;28;32203;-75
2022/04/07 09:03:28;;;;;;;9.85;1.02;;;9.60;99.90;;;;;;5040663;28;20056;-76
2022/04/07 09:06:01;;;;;;;10.15;1.35;;;9.50;99.90;;;;;;4983244;28;212024;-76
2022/04/07 09:08:39;;;;;;;10.00;1.52;;;9.40;99.90;;;;;;5030497;28;20054;-76
2022/04/07 09:11:07;;;;;;;9.77;1.10;;;9.30;99.90;;;;;;4986659;28;185635;-76
2022/04/07 09:13:41;;;;;;;8.30;1.20;;;9.40;99.90;;;;;;5015095;28;20045;-76
2022/04/07 09:16:13;;;;;;;9.25;1.13;;;9.30;99.90;;;;;;4970000;28;253941;-76
2022/04/07 09:18:42;;;;;;;8.25;1.20;;;9.60;99.90;;;;;;5024672;28;20065;-76
2022/04/07 09:21:27;;;;;;;11.48;1.30;;;9.60;99.90;;;;;;5000431;28;250820;-76
2022/04/07 09:23:54;;;;;;;12.55;1.65;;;9.90;99.90;;;;;;5002591;28;266649;-76
2022/04/07 09:26:20;;;;;;;8.65;1.40;;;10.30;99.90;;;;;;5003674;28;20048;-75
2022/04/07 09:28:46;;;;;;;9.55;1.48;;;10.10;99.90;;;;;;5029757;28;20063;-76
2022/04/07 09:31:15;;;;;;;12.07;1.90;;;9.90;99.90;;;;;;4982596;28;251913;-76
2022/04/07 09:33:42;;;;;;;12.18;1.88;;;9.80;99.90;;;;;;5028941;28;20049;-76
2022/04/07 09:36:19;;;;;;;10.10;1.52;;;10.00;99.90;;;;;;4985792;28;22331;-77
2022/04/07 09:38:50;;;;;;;10.57;1.58;;;10.30;99.90;;;;;;5036435;28;20052;-77
2022/04/07 09:41:19;;;;;;;12.40;1.80;;;10.40;99.90;;;;;;4971342;28;20045;-77
2022/04/07 09:43:49;;;;;;;16.48;2.20;;;10.10;99.90;;;;;;5037818;28;20502;-75
2022/04/07 09:46:18;;;;;;;12.63;1.90;;;10.10;99.90;;;;;;4985532;28;20509;-75
2022/04/07 09:49:07;;;;;;;13.23;1.85;;;10.00;99.90;;;;;;5037912;28;20057;-76
2022/04/07 09:51:44;;;;;;;14.27;1.90;;;10.30;99.90;;;;;;4989320;28;20263;-76
2022/04/07 09:54:10;;;;;;;9.50;1.95;;;10.40;99.90;;;;;;5017945;28;248215;-77
2022/04/07 09:56:37;;;;;;;12.63;2.25;;;10.30;99.90;;;;;;5011856;28;20041;-76
2022/04/07 09:59:08;;;;;;;13.18;2.00;;;10.20;99.90;;;;;;4994232;28;274527;-76
2022/04/07 10:01:38;;;;;;;14.30;2.25;;;10.00;99.90;;;;;;4989796;28;20120;-74
2022/04/07 10:04:08;;;;;;;14.10;2.40;;;9.80;99.90;;;;;;5008162;28;259150;-76
2022/04/07 10:06:37;;;;;;;15.77;1.92;;;9.70;99.90;;;;;;4994479;28;20053;-75
2022/04/07 10:09:09;;;;;;;16.02;2.13;;;9.80;99.90;;;;;;5013668;28;264573;-76
2022/04/07 10:11:36;;;;;;;16.98;2.40;;;9.80;99.90;;;;;;4989319;28;20052;-75
2022/04/07 10:14:02;;;;;;;15.25;2.10;;;10.50;99.90;;;;;;5012770;28;270498;-76
2022/04/07 10:16:29;;;;;;;14.70;2.10;;;10.90;99.90;;;;;;4998994;28;20421;-76
2022/04/07 10:19:05;;;;;;;15.13;2.13;;;11.60;99.90;;;;;;4988913;28;260950;-75
2022/04/07 10:21:43;;;;;;;15.07;2.50;;;12.00;99.90;;;;;;5011832;28;20072;-76
2022/04/07 10:24:27;;;;;;;15.95;2.63;;;11.60;99.90;;;;;;5029320;28;272923;-76
2022/04/07 10:26:55;;;;;;;13.18;2.10;;;11.00;99.90;;;;;;4990586;28;20044;-76
2022/04/07 10:29:22;;;;;;;13.52;2.20;;;10.80;99.90;;;;;;5029452;28;107438;-75
2022/04/07 10:32:11;;;;;;;17.15;2.40;;;10.50;99.90;;;;;;4998734;28;20055;-75
2022/04/07 10:34:42;;;;;;;17.40;2.55;;;10.20;99.90;;;;;;5010497;28;224449;-75
2022/04/07 10:37:09;;;;;;;13.32;2.15;;;10.00;99.90;;;;;;4983739;28;20505;-75
2022/04/07 10:39:41;;;;;;;16.17;2.30;;;9.90;99.90;;;;;;5019484;28;53373;-76
2022/04/07 10:42:09;;;;;;;19.67;2.50;;;10.00;99.90;;;;;;4999423;28;20178;-76
2022/04/07 10:44:36;;;;;;;13.93;2.20;;;10.70;99.90;;;;;;5016428;28;124333;-76
2022/04/07 10:47:03;;;;;;;16.95;2.60;;;11.30;99.90;;;;;;4975694;28;20049;-75
2022/04/07 10:49:30;;;;;;;14.30;2.45;;;11.50;99.90;;;;;;5011345;28;223226;-77
2022/04/07 10:51:58;;;;;;;14.75;2.22;;;10.80;99.90;;;;;;5001575;28;20072;-76
2022/04/07 10:54:28;;;;;;;15.80;2.47;;;10.20;99.90;;;;;;5020068;28;138807;-76
2022/04/07 10:56:56;;;;;;;11.13;1.95;;;10.20;99.90;;;;;;4982369;28;20048;-75
2022/04/07 10:59:34;;;;;;;14.23;2.50;;;10.00;99.90;;;;;;5015876;28;271597;-76
2022/04/07 11:02:10;;;;;;;12.93;2.10;;;9.70;99.90;;;;;;4989261;28;20052;-76
2022/04/07 11:04:39;;;;;;;15.68;2.15;;;9.60;99.90;;;;;;5016834;28;259821;-75
2022/04/07 11:07:06;;;;;;;19.80;3.08;;;9.50;99.90;;;;;;4989592;28;20045;-76
2022/04/07 11:10:01;;;;;;;14.82;2.47;;;9.20;99.90;;;;;;5015877;28;228687;-77
2022/04/07 11:12:35;;;;;;;15.63;2.75;;;8.80;99.90;;;;;;4996612;28;20045;-77
2022/04/07 11:15:01;;;;;;;19.55;2.90;;;8.50;99.90;;;;;;5001282;28;136053;-76
2022/04/07 11:17:34;;;;;;;14.50;2.55;;;8.40;99.90;;;;;;5007548;28;20489;-76
2022/04/07 11:20:19;;;;;;;17.23;2.35;;;8.90;99.90;;;;;;5037721;28;89700;-75
2022/04/07 11:22:48;;;;;;;15.43;1.95;;;9.30;99.90;;;;;;4993219;28;20037;-76
2022/04/07 11:25:19;;;;;;;17.25;2.53;;;9.60;99.90;;;;;;5006632;28;208246;-77
2022/04/07 11:27:47;;;;;;;15.63;2.53;;;10.10;99.90;;;;;;4996265;28;20048;-76
2022/04/07 11:30:14;;;;;;;15.27;2.53;;;10.80;99.90;;;;;;5031133;28;127657;-76
2022/04/07 11:33:14;;;;;;;16.38;2.92;;;10.60;99.90;;;;;;5004834;28;20060;-77
2022/04/07 11:35:40;;;;;;;18.92;2.58;;;10.40;99.90;;;;;;5006573;28;254429;-75
2022/04/07 11:38:06;;;;;;;15.70;2.63;;;10.60;99.90;;;;;;5024456;28;20072;-76
2022/04/07 11:40:32;;;;;;;23.35;3.13;;;10.50;99.90;;;;;;4981753;28;171888;-75
2022/04/07 11:42:58;;;;;;;17.63;2.60;;;10.40;99.90;;;;;;5040841;28;20044;-76
2022/04/07 11:45:31;;;;;;;18.63;3.03;;;10.50;99.90;;;;;;5011685;28;145092;-75
2022/04/07 11:47:57;;;;;;;18.38;2.67;;;10.60;99.90;;;;;;5001731;28;20044;-76
2022/04/07 11:50:24;;;;;;;18.52;3.42;;;10.50;99.90;;;;;;5028307;28;103284;-75
2022/04/07 11:52:50;;;;;;;22.08;3.20;;;10.40;99.90;;;;;;4976913;28;20037;-75
2022/04/07 11:55:29;;;;;;;16.95;2.75;;;10.40;99.90;;;;;;5011440;28;214679;-75
2022/04/07 11:57:59;;;;;;;16.40;2.45;;;10.30;99.90;;;;;;4992657;28;20033;-77
2022/04/07 12:00:30;;;;;;;15.23;2.53;;;10.20;99.90;;;;;;5005645;28;191479;-76
2022/04/07 12:02:59;;;;;;;16.38;2.97;;;10.20;99.90;;;;;;4998206;28;20042;-75
2022/04/07 12:05:26;;;;;;;18.98;2.30;;;10.20;99.90;;;;;;4989297;28;147945;-75
2022/04/07 12:07:54;;;;;;;20.95;3.28;;;10.50;99.90;;;;;;5005061;28;20433;-76
2022/04/07 12:10:20;;;;;;;18.10;3.17;;;11.30;99.90;;;;;;5005041;28;101559;-77
2022/04/07 12:12:48;;;;;;;17.25;2.90;;;11.30;99.90;;;;;;4993929;28;20037;-77
2022/04/07 12:15:16;;;;;;;19.10;2.50;;;11.00;99.90;;;;;;5017110;28;53374;-77
2022/04/07 12:17:59;;;;;;;20.10;3.20;;;10.70;99.90;;;;;;4992312;28;20037;-75
2022/04/07 12:20:25;;;;;;;15.15;2.40;;;10.70;99.90;;;;;;5013514;28;82045;-77
2022/04/07 12:23:12;;;;;;;17.92;2.55;;;10.60;99.90;;;;;;4992588;28;20120;-76
2022/04/07 12:25:43;;;;;;;17.52;2.25;;;10.60;99.90;;;;;;4986566;28;88244;-76
2022/04/07 12:28:18;;;;;;;21.80;2.95;;;10.60;99.90;;;;;;5022488;28;21021;-76
2022/04/07 12:30:48;;;;;;;19.10;2.75;;;10.90;99.90;;;;;;4980486;28;240005;-76
2022/04/07 12:33:40;;;;;;;16.98;2.58;;;10.90;99.90;;;;;;5018460;28;20410;-75
2022/04/07 12:36:08;;;;;;;14.00;2.20;;;10.80;99.90;;;;;;4982874;28;75737;-76
2022/04/07 12:38:35;;;;;;;16.88;2.60;;;10.60;99.90;;;;;;5042836;28;20046;-74
2022/04/07 12:41:09;;;;;;;20.52;2.22;;;10.30;99.90;;;;;;4977867;28;151144;-78
2022/04/07 12:44:03;;;;;;;13.23;1.50;;;9.70;99.90;;;;;;5023045;28;20050;-78
2022/04/07 12:46:47;;;;;;;10.77;1.70;;;8.60;99.90;;;;;;4990700;28;20040;-78
2022/04/07 12:49:14;;;;;;;11.95;1.70;;;8.20;99.90;;;;;;5017721;28;123297;-77